RYR14RE EGSS-EIDW
Flight info
| Callsign | RYR14RE |
|---|---|
| Flight time | 1h 1m |
| Altitude | 24000 |
| Route | NUGBO M183 SILVA/N0425F340 P86 DIDZA N14 OKSAW DCT BIBPE DCT OKTAD DCT MEDOG DCT KRAGY DCT PEMOB M17 VATRY VATRY4L |
| Aircraft | B738/M-SDE3FGILRWY/SB1 |
Departure
| Time | 2026-05-07 12:50 |
|---|---|
| Airport | London Stansted Airport (EGSS) |
Arrival
| Time | 2026-05-07 13:51 |
|---|---|
| Airport | Dublin Airport (EIDW) |
| Time | Latitude | Longitude | Altitude | Speed | Heading |
|---|---|---|---|---|---|
| 2026-05-07 12:01 | 51.89213 | 0.26002 | 348 ft | 0 kts | 43° |
| 2026-05-07 12:27 | 51.89206 | 0.25992 | 348 ft | 2 kts | 38° |
| 2026-05-07 12:27 | 51.89192 | 0.25976 | 355 ft | 2 kts | 28° |
| 2026-05-07 12:27 | 51.89177 | 0.25967 | 351 ft | 2 kts | 358° |
| 2026-05-07 12:28 | 51.89162 | 0.25976 | 355 ft | 2 kts | 318° |
| 2026-05-07 12:28 | 51.89156 | 0.25985 | 358 ft | 0 kts | 312° |
| 2026-05-07 12:33 | 51.89161 | 0.25976 | 350 ft | 3 kts | 312° |
| 2026-05-07 12:33 | 51.89182 | 0.25938 | 353 ft | 6 kts | 312° |
| 2026-05-07 12:34 | 51.89216 | 0.25876 | 348 ft | 9 kts | 312° |
| 2026-05-07 12:34 | 51.89263 | 0.25792 | 348 ft | 11 kts | 312° |
| 2026-05-07 12:34 | 51.89321 | 0.25687 | 355 ft | 14 kts | 312° |
| 2026-05-07 12:34 | 51.89362 | 0.25557 | 348 ft | 14 kts | 247° |
| 2026-05-07 12:35 | 51.89295 | 0.25454 | 348 ft | 13 kts | 220° |
| 2026-05-07 12:35 | 51.89229 | 0.25358 | 351 ft | 13 kts | 223° |
| 2026-05-07 12:35 | 51.89165 | 0.25261 | 349 ft | 12 kts | 223° |
| 2026-05-07 12:35 | 51.89102 | 0.25167 | 356 ft | 12 kts | 223° |
| 2026-05-07 12:36 | 51.89041 | 0.25075 | 352 ft | 12 kts | 223° |
| 2026-05-07 12:36 | 51.88982 | 0.24986 | 351 ft | 11 kts | 223° |
| 2026-05-07 12:36 | 51.88924 | 0.24899 | 348 ft | 11 kts | 223° |
| 2026-05-07 12:36 | 51.88868 | 0.24814 | 352 ft | 11 kts | 223° |
| 2026-05-07 12:37 | 51.88814 | 0.24732 | 354 ft | 11 kts | 223° |
| 2026-05-07 12:37 | 51.88761 | 0.24652 | 349 ft | 10 kts | 223° |
| 2026-05-07 12:37 | 51.88709 | 0.24576 | 351 ft | 10 kts | 222° |
| 2026-05-07 12:37 | 51.88659 | 0.24502 | 356 ft | 10 kts | 222° |
| 2026-05-07 12:38 | 51.88610 | 0.24430 | 350 ft | 9 kts | 222° |
| 2026-05-07 12:38 | 51.88562 | 0.24359 | 348 ft | 9 kts | 222° |
| 2026-05-07 12:38 | 51.88515 | 0.24290 | 352 ft | 9 kts | 224° |
| 2026-05-07 12:38 | 51.88470 | 0.24222 | 348 ft | 9 kts | 223° |
| 2026-05-07 12:39 | 51.88428 | 0.24154 | 357 ft | 8 kts | 225° |
| 2026-05-07 12:39 | 51.88385 | 0.24087 | 353 ft | 9 kts | 223° |
| 2026-05-07 12:39 | 51.88332 | 0.24009 | 351 ft | 11 kts | 221° |
| 2026-05-07 12:39 | 51.88278 | 0.23931 | 351 ft | 10 kts | 225° |
| 2026-05-07 12:40 | 51.88227 | 0.23852 | 353 ft | 10 kts | 223° |
| 2026-05-07 12:40 | 51.88177 | 0.23778 | 348 ft | 10 kts | 227° |
| 2026-05-07 12:40 | 51.88128 | 0.23703 | 348 ft | 10 kts | 223° |
| 2026-05-07 12:40 | 51.88081 | 0.23630 | 352 ft | 9 kts | 223° |
| 2026-05-07 12:41 | 51.88033 | 0.23562 | 351 ft | 9 kts | 224° |
| 2026-05-07 12:41 | 51.87988 | 0.23493 | 348 ft | 9 kts | 223° |
| 2026-05-07 12:41 | 51.87944 | 0.23427 | 351 ft | 9 kts | 223° |
| 2026-05-07 12:41 | 51.87900 | 0.23364 | 352 ft | 8 kts | 221° |
| 2026-05-07 12:42 | 51.87858 | 0.23301 | 351 ft | 8 kts | 221° |
| 2026-05-07 12:42 | 51.87817 | 0.23241 | 348 ft | 8 kts | 224° |
| 2026-05-07 12:42 | 51.87778 | 0.23184 | 352 ft | 8 kts | 220° |
| 2026-05-07 12:42 | 51.87742 | 0.23121 | 351 ft | 7 kts | 233° |
| 2026-05-07 12:43 | 51.87731 | 0.23044 | 348 ft | 7 kts | 286° |
| 2026-05-07 12:43 | 51.87762 | 0.22982 | 354 ft | 7 kts | 313° |
| 2026-05-07 12:43 | 51.87783 | 0.22913 | 354 ft | 7 kts | 276° |
| 2026-05-07 12:43 | 51.87747 | 0.22835 | 352 ft | 12 kts | 221° |
| 2026-05-07 12:44 | 51.87682 | 0.22739 | 350 ft | 13 kts | 224° |
| 2026-05-07 12:44 | 51.87618 | 0.22640 | 348 ft | 13 kts | 224° |
| 2026-05-07 12:44 | 51.87554 | 0.22547 | 351 ft | 13 kts | 222° |
| 2026-05-07 12:44 | 51.87482 | 0.22439 | 341 ft | 15 kts | 223° |
| 2026-05-07 12:45 | 51.87410 | 0.22323 | 338 ft | 14 kts | 233° |
| 2026-05-07 12:45 | 51.87416 | 0.22181 | 336 ft | 13 kts | 308° |
| 2026-05-07 12:45 | 51.87420 | 0.22172 | 334 ft | 0 kts | 309° |
| 2026-05-07 12:48 | 51.87421 | 0.22170 | 334 ft | 1 kts | 309° |
| 2026-05-07 12:48 | 51.87442 | 0.22133 | 337 ft | 9 kts | 313° |
| 2026-05-07 12:48 | 51.87491 | 0.22047 | 335 ft | 11 kts | 314° |
| 2026-05-07 12:49 | 51.87556 | 0.22061 | 335 ft | 11 kts | 44° |
| 2026-05-07 12:49 | 51.87575 | 0.22091 | 334 ft | 0 kts | 44° |
| 2026-05-07 12:49 | 51.87603 | 0.22133 | 333 ft | 26 kts | 43° |
| 2026-05-07 12:50 | 51.87951 | 0.22653 | 343 ft | 109 kts | 44° |
| 2026-05-07 12:50 | 51.88675 | 0.23759 | 409 ft | 170 kts | 45° |
| 2026-05-07 12:50 | 51.89582 | 0.25022 | 1368 ft | 174 kts | 42° |
| 2026-05-07 12:50 | 51.90615 | 0.26178 | 2149 ft | 193 kts | 41° |
| 2026-05-07 12:51 | 51.91350 | 0.28064 | 2587 ft | 210 kts | 70° |
| 2026-05-07 12:51 | 51.92121 | 0.30217 | 2865 ft | 233 kts | 43° |
| 2026-05-07 12:51 | 51.93631 | 0.31241 | 3384 ft | 246 kts | 3° |
| 2026-05-07 12:51 | 51.95329 | 0.30525 | 3799 ft | 264 kts | 324° |
| 2026-05-07 12:52 | 51.96491 | 0.28261 | 4537 ft | 264 kts | 293° |
| 2026-05-07 12:52 | 51.97011 | 0.25441 | 4948 ft | 265 kts | 278° |
| 2026-05-07 12:52 | 51.97305 | 0.22500 | 4984 ft | 265 kts | 277° |
| 2026-05-07 12:52 | 51.97586 | 0.19537 | 5007 ft | 266 kts | 277° |
| 2026-05-07 12:53 | 51.97875 | 0.16557 | 4993 ft | 268 kts | 278° |
| 2026-05-07 12:53 | 51.98185 | 0.13561 | 5006 ft | 272 kts | 278° |
| 2026-05-07 12:53 | 51.98509 | 0.10533 | 4989 ft | 271 kts | 278° |
| 2026-05-07 12:53 | 51.98833 | 0.07529 | 4993 ft | 270 kts | 277° |
| 2026-05-07 12:54 | 51.98835 | 0.04565 | 5003 ft | 265 kts | 257° |
| 2026-05-07 12:54 | 51.98440 | 0.01661 | 5006 ft | 264 kts | 255° |
| 2026-05-07 12:54 | 51.98050 | -0.01243 | 5005 ft | 263 kts | 256° |
| 2026-05-07 12:54 | 51.97670 | -0.04148 | 4996 ft | 263 kts | 256° |
| 2026-05-07 12:55 | 51.97295 | -0.07053 | 5010 ft | 263 kts | 256° |
| 2026-05-07 12:55 | 51.96917 | -0.09957 | 5000 ft | 264 kts | 256° |
| 2026-05-07 12:55 | 51.96539 | -0.12866 | 4993 ft | 264 kts | 256° |
| 2026-05-07 12:55 | 51.96158 | -0.15778 | 5016 ft | 265 kts | 256° |
| 2026-05-07 12:56 | 51.95771 | -0.18743 | 5478 ft | 270 kts | 256° |
| 2026-05-07 12:56 | 51.95389 | -0.21663 | 6427 ft | 270 kts | 256° |
| 2026-05-07 12:56 | 51.94992 | -0.24693 | 7257 ft | 273 kts | 256° |
| 2026-05-07 12:56 | 51.94601 | -0.27670 | 8015 ft | 276 kts | 256° |
| 2026-05-07 12:57 | 51.94200 | -0.30728 | 8812 ft | 279 kts | 257° |
| 2026-05-07 12:57 | 51.93795 | -0.33806 | 9626 ft | 283 kts | 257° |
| 2026-05-07 12:57 | 51.93377 | -0.36965 | 10359 ft | 288 kts | 256° |
| 2026-05-07 12:57 | 51.92940 | -0.40256 | 10588 ft | 311 kts | 256° |
| 2026-05-07 12:58 | 51.92469 | -0.43802 | 10853 ft | 331 kts | 257° |
| 2026-05-07 12:58 | 51.91995 | -0.47370 | 11436 ft | 338 kts | 257° |
| 2026-05-07 12:58 | 51.91498 | -0.51107 | 12175 ft | 341 kts | 257° |
| 2026-05-07 12:58 | 51.90994 | -0.54880 | 12946 ft | 344 kts | 256° |
| 2026-05-07 12:59 | 51.90487 | -0.58641 | 13712 ft | 348 kts | 256° |
| 2026-05-07 12:59 | 51.89968 | -0.62488 | 14438 ft | 352 kts | 256° |
| 2026-05-07 12:59 | 51.89446 | -0.66369 | 15204 ft | 354 kts | 256° |
| 2026-05-07 12:59 | 51.88917 | -0.70271 | 15967 ft | 356 kts | 256° |
| 2026-05-07 13:00 | 51.88385 | -0.74207 | 16729 ft | 359 kts | 256° |
| 2026-05-07 13:00 | 51.87853 | -0.78167 | 17478 ft | 362 kts | 256° |
| 2026-05-07 13:00 | 51.87311 | -0.82176 | 18235 ft | 365 kts | 256° |
| 2026-05-07 13:00 | 51.86764 | -0.86195 | 18981 ft | 365 kts | 256° |
| 2026-05-07 13:01 | 51.86225 | -0.90128 | 19793 ft | 361 kts | 256° |
| 2026-05-07 13:01 | 51.85679 | -0.94081 | 20648 ft | 358 kts | 256° |
| 2026-05-07 13:01 | 51.84999 | -0.97921 | 21404 ft | 357 kts | 246° |
| 2026-05-07 13:01 | 51.83858 | -1.01490 | 22179 ft | 355 kts | 237° |
| 2026-05-07 13:02 | 51.82365 | -1.04645 | 22970 ft | 353 kts | 226° |
| 2026-05-07 13:02 | 51.80659 | -1.07475 | 23721 ft | 352 kts | 224° |
| 2026-05-07 13:02 | 51.78919 | -1.10248 | 23999 ft | 352 kts | 224° |
| 2026-05-07 13:02 | 51.77178 | -1.13023 | 24031 ft | 351 kts | 224° |
| 2026-05-07 13:03 | 51.75428 | -1.15822 | 24060 ft | 365 kts | 225° |
| 2026-05-07 13:03 | 51.73596 | -1.18771 | 24106 ft | 380 kts | 225° |
| 2026-05-07 13:03 | 51.71694 | -1.21849 | 24217 ft | 394 kts | 225° |
| 2026-05-07 13:03 | 51.69731 | -1.25038 | 24324 ft | 407 kts | 225° |
| 2026-05-07 13:04 | 51.67709 | -1.28319 | 24469 ft | 418 kts | 225° |
| 2026-05-07 13:04 | 51.65647 | -1.31686 | 24699 ft | 425 kts | 227° |
| 2026-05-07 13:04 | 51.64000 | -1.35658 | 24995 ft | 431 kts | 246° |
| 2026-05-07 13:04 | 51.63194 | -1.40281 | 25539 ft | 431 kts | 262° |
| 2026-05-07 13:05 | 51.63215 | -1.45011 | 26176 ft | 429 kts | 277° |
| 2026-05-07 13:05 | 51.64012 | -1.49635 | 26707 ft | 431 kts | 293° |
| 2026-05-07 13:05 | 51.65415 | -1.53915 | 27198 ft | 433 kts | 298° |
| 2026-05-07 13:05 | 51.66903 | -1.58131 | 27649 ft | 434 kts | 298° |
| 2026-05-07 13:06 | 51.68360 | -1.62384 | 28134 ft | 434 kts | 297° |
| 2026-05-07 13:06 | 51.69699 | -1.66735 | 28658 ft | 432 kts | 290° |
| 2026-05-07 13:06 | 51.70608 | -1.71327 | 29202 ft | 430 kts | 281° |
| 2026-05-07 13:06 | 51.71034 | -1.76076 | 29706 ft | 428 kts | 274° |
| 2026-05-07 13:07 | 51.71319 | -1.80850 | 30186 ft | 428 kts | 274° |
| 2026-05-07 13:07 | 51.71646 | -1.85619 | 30597 ft | 428 kts | 277° |
| 2026-05-07 13:07 | 51.72215 | -1.90307 | 31028 ft | 428 kts | 281° |
| 2026-05-07 13:07 | 51.72902 | -1.94908 | 31468 ft | 427 kts | 282° |
| 2026-05-07 13:08 | 51.73638 | -1.99548 | 31873 ft | 427 kts | 283° |
| 2026-05-07 13:08 | 51.74379 | -2.04180 | 32270 ft | 426 kts | 283° |
| 2026-05-07 13:08 | 51.75103 | -2.08823 | 32688 ft | 425 kts | 282° |
| 2026-05-07 13:08 | 51.75804 | -2.13447 | 33102 ft | 425 kts | 282° |
| 2026-05-07 13:09 | 51.76489 | -2.18052 | 33488 ft | 424 kts | 282° |
| 2026-05-07 13:09 | 51.77175 | -2.22718 | 33862 ft | 424 kts | 282° |
| 2026-05-07 13:09 | 51.77852 | -2.27353 | 34059 ft | 427 kts | 282° |
| 2026-05-07 13:09 | 51.78535 | -2.32042 | 34058 ft | 430 kts | 282° |
| 2026-05-07 13:10 | 51.79888 | -2.41349 | 34033 ft | 425 kts | 282° |
| 2026-05-07 13:10 | 51.81225 | -2.50595 | 34048 ft | 423 kts | 281° |
| 2026-05-07 13:11 | 51.82536 | -2.59864 | 34056 ft | 424 kts | 281° |
| 2026-05-07 13:11 | 51.83792 | -2.69199 | 34058 ft | 425 kts | 280° |
| 2026-05-07 13:12 | 51.85041 | -2.78565 | 34036 ft | 427 kts | 280° |
| 2026-05-07 13:12 | 51.86276 | -2.87822 | 34054 ft | 427 kts | 280° |
| 2026-05-07 13:13 | 51.87528 | -2.97263 | 34045 ft | 427 kts | 280° |
| 2026-05-07 13:13 | 51.88767 | -3.06656 | 34051 ft | 426 kts | 280° |
| 2026-05-07 13:14 | 51.89987 | -3.15978 | 34038 ft | 426 kts | 280° |
| 2026-05-07 13:14 | 51.91204 | -3.25327 | 34039 ft | 425 kts | 280° |
| 2026-05-07 13:15 | 51.92417 | -3.34704 | 34031 ft | 424 kts | 279° |
| 2026-05-07 13:15 | 51.93618 | -3.44057 | 34022 ft | 424 kts | 279° |
| 2026-05-07 13:16 | 51.94812 | -3.53403 | 34015 ft | 423 kts | 279° |
| 2026-05-07 13:16 | 51.95990 | -3.62672 | 34017 ft | 419 kts | 279° |
| 2026-05-07 13:17 | 51.97149 | -3.71814 | 34012 ft | 410 kts | 279° |
| 2026-05-07 13:17 | 51.98287 | -3.80851 | 34031 ft | 409 kts | 279° |
| 2026-05-07 13:18 | 51.99407 | -3.89805 | 33934 ft | 396 kts | 279° |
| 2026-05-07 13:18 | 51.99947 | -3.94130 | 33695 ft | 389 kts | 279° |
| 2026-05-07 13:18 | 52.00480 | -3.98430 | 33306 ft | 387 kts | 279° |
| 2026-05-07 13:19 | 52.01001 | -4.02641 | 32901 ft | 385 kts | 279° |
| 2026-05-07 13:19 | 52.01524 | -4.06895 | 32530 ft | 382 kts | 279° |
| 2026-05-07 13:19 | 52.02042 | -4.11113 | 32170 ft | 380 kts | 279° |
| 2026-05-07 13:19 | 52.02554 | -4.15293 | 31818 ft | 377 kts | 279° |
| 2026-05-07 13:20 | 52.03064 | -4.19471 | 31456 ft | 375 kts | 279° |
| 2026-05-07 13:20 | 52.03568 | -4.23610 | 31100 ft | 373 kts | 278° |
| 2026-05-07 13:20 | 52.04069 | -4.27740 | 30760 ft | 371 kts | 279° |
| 2026-05-07 13:20 | 52.04564 | -4.31833 | 30435 ft | 369 kts | 278° |
| 2026-05-07 13:21 | 52.05056 | -4.35908 | 30117 ft | 366 kts | 278° |
| 2026-05-07 13:21 | 52.05535 | -4.39897 | 29732 ft | 364 kts | 278° |
| 2026-05-07 13:21 | 52.06018 | -4.43924 | 29368 ft | 361 kts | 279° |
| 2026-05-07 13:21 | 52.06494 | -4.47905 | 29024 ft | 358 kts | 278° |
| 2026-05-07 13:22 | 52.06965 | -4.51864 | 28648 ft | 355 kts | 278° |
| 2026-05-07 13:22 | 52.07429 | -4.55769 | 28293 ft | 352 kts | 278° |
| 2026-05-07 13:22 | 52.07892 | -4.59675 | 27950 ft | 349 kts | 278° |
| 2026-05-07 13:22 | 52.08348 | -4.63545 | 27598 ft | 347 kts | 278° |
| 2026-05-07 13:23 | 52.08799 | -4.67378 | 27260 ft | 344 kts | 278° |
| 2026-05-07 13:23 | 52.09244 | -4.71195 | 26906 ft | 342 kts | 278° |
| 2026-05-07 13:23 | 52.09679 | -4.74928 | 26567 ft | 340 kts | 278° |
| 2026-05-07 13:23 | 52.10118 | -4.78692 | 26237 ft | 337 kts | 278° |
| 2026-05-07 13:24 | 52.10554 | -4.82431 | 25900 ft | 335 kts | 278° |
| 2026-05-07 13:24 | 52.10987 | -4.86143 | 25568 ft | 333 kts | 278° |
| 2026-05-07 13:24 | 52.11414 | -4.89831 | 25243 ft | 331 kts | 278° |
| 2026-05-07 13:24 | 52.11836 | -4.93496 | 24916 ft | 328 kts | 278° |
| 2026-05-07 13:25 | 52.12254 | -4.97137 | 24605 ft | 326 kts | 278° |
| 2026-05-07 13:25 | 52.12667 | -5.00763 | 24287 ft | 324 kts | 278° |
| 2026-05-07 13:25 | 52.13074 | -5.04353 | 24062 ft | 321 kts | 278° |
| 2026-05-07 13:25 | 52.13476 | -5.07919 | 24053 ft | 327 kts | 278° |
| 2026-05-07 13:26 | 52.13892 | -5.11558 | 24015 ft | 327 kts | 281° |
| 2026-05-07 13:26 | 52.14769 | -5.14947 | 24006 ft | 328 kts | 302° |
| 2026-05-07 13:26 | 52.16342 | -5.17652 | 24007 ft | 334 kts | 323° |
| 2026-05-07 13:26 | 52.18372 | -5.19534 | 24032 ft | 338 kts | 330° |
| 2026-05-07 13:27 | 52.20484 | -5.21253 | 24019 ft | 340 kts | 331° |
| 2026-05-07 13:27 | 52.22613 | -5.22947 | 24018 ft | 342 kts | 331° |
| 2026-05-07 13:27 | 52.24748 | -5.24672 | 24010 ft | 342 kts | 328° |
| 2026-05-07 13:27 | 52.26705 | -5.26831 | 24017 ft | 339 kts | 320° |
| 2026-05-07 13:28 | 52.28574 | -5.29184 | 24008 ft | 339 kts | 319° |
| 2026-05-07 13:28 | 52.30423 | -5.31557 | 24010 ft | 338 kts | 319° |
| 2026-05-07 13:28 | 52.32246 | -5.33898 | 24003 ft | 337 kts | 319° |
| 2026-05-07 13:28 | 52.34089 | -5.36258 | 24002 ft | 336 kts | 319° |
| 2026-05-07 13:29 | 52.35932 | -5.38609 | 24001 ft | 335 kts | 319° |
| 2026-05-07 13:29 | 52.37770 | -5.40947 | 24002 ft | 335 kts | 319° |
| 2026-05-07 13:29 | 52.39607 | -5.43279 | 24002 ft | 334 kts | 319° |
| 2026-05-07 13:29 | 52.41445 | -5.45613 | 24010 ft | 336 kts | 319° |
| 2026-05-07 13:30 | 52.43296 | -5.47963 | 24002 ft | 334 kts | 319° |
| 2026-05-07 13:30 | 52.45102 | -5.50252 | 23990 ft | 323 kts | 319° |
| 2026-05-07 13:30 | 52.46821 | -5.52432 | 23980 ft | 310 kts | 319° |
| 2026-05-07 13:30 | 52.48491 | -5.54551 | 23975 ft | 297 kts | 319° |
| 2026-05-07 13:31 | 52.50097 | -5.56591 | 23982 ft | 286 kts | 319° |
| 2026-05-07 13:31 | 52.51656 | -5.58576 | 23989 ft | 285 kts | 319° |
| 2026-05-07 13:31 | 52.53239 | -5.60600 | 23899 ft | 290 kts | 319° |
| 2026-05-07 13:31 | 52.54839 | -5.62646 | 23527 ft | 295 kts | 319° |
| 2026-05-07 13:32 | 52.56499 | -5.64775 | 22599 ft | 313 kts | 319° |
| 2026-05-07 13:32 | 52.58281 | -5.67065 | 21524 ft | 336 kts | 319° |
| 2026-05-07 13:32 | 52.60138 | -5.69445 | 21011 ft | 339 kts | 319° |
| 2026-05-07 13:32 | 52.61968 | -5.71786 | 20732 ft | 335 kts | 319° |
| 2026-05-07 13:33 | 52.63797 | -5.74126 | 20434 ft | 332 kts | 319° |
| 2026-05-07 13:33 | 52.65616 | -5.76457 | 20080 ft | 330 kts | 319° |
| 2026-05-07 13:33 | 52.67425 | -5.78780 | 19725 ft | 329 kts | 319° |
| 2026-05-07 13:33 | 52.69227 | -5.81098 | 19400 ft | 328 kts | 319° |
| 2026-05-07 13:34 | 52.71017 | -5.83402 | 19076 ft | 326 kts | 319° |
| 2026-05-07 13:34 | 52.74535 | -5.87936 | 18666 ft | 309 kts | 319° |
| 2026-05-07 13:34 | 52.76191 | -5.90071 | 18540 ft | 294 kts | 319° |
| 2026-05-07 13:35 | 52.77762 | -5.92099 | 18290 ft | 287 kts | 318° |
| 2026-05-07 13:35 | 52.79333 | -5.94136 | 17881 ft | 287 kts | 319° |
| 2026-05-07 13:35 | 52.80903 | -5.96173 | 17481 ft | 287 kts | 318° |
| 2026-05-07 13:35 | 52.82470 | -5.98209 | 17085 ft | 287 kts | 318° |
| 2026-05-07 13:36 | 52.84032 | -6.00238 | 16697 ft | 286 kts | 318° |
| 2026-05-07 13:36 | 52.85601 | -6.02279 | 16302 ft | 286 kts | 318° |
| 2026-05-07 13:36 | 52.87160 | -6.04307 | 15927 ft | 285 kts | 318° |
| 2026-05-07 13:36 | 52.88715 | -6.06333 | 15549 ft | 284 kts | 318° |
| 2026-05-07 13:37 | 52.90266 | -6.08355 | 15173 ft | 284 kts | 318° |
| 2026-05-07 13:37 | 52.91797 | -6.10352 | 14803 ft | 283 kts | 318° |
| 2026-05-07 13:37 | 52.93333 | -6.12358 | 14438 ft | 280 kts | 318° |
| 2026-05-07 13:37 | 52.94856 | -6.14348 | 14068 ft | 277 kts | 318° |
| 2026-05-07 13:38 | 52.96359 | -6.16312 | 13692 ft | 274 kts | 318° |
| 2026-05-07 13:38 | 52.97849 | -6.18262 | 13292 ft | 272 kts | 318° |
| 2026-05-07 13:38 | 52.99326 | -6.20197 | 12885 ft | 269 kts | 318° |
| 2026-05-07 13:38 | 53.00788 | -6.22114 | 12479 ft | 267 kts | 318° |
| 2026-05-07 13:39 | 53.02239 | -6.24019 | 12085 ft | 264 kts | 318° |
| 2026-05-07 13:39 | 53.03674 | -6.25905 | 11700 ft | 262 kts | 317° |
| 2026-05-07 13:39 | 53.05083 | -6.27757 | 11316 ft | 261 kts | 318° |
| 2026-05-07 13:39 | 53.06498 | -6.29620 | 10937 ft | 259 kts | 318° |
| 2026-05-07 13:40 | 53.07890 | -6.31453 | 10568 ft | 258 kts | 318° |
| 2026-05-07 13:40 | 53.09287 | -6.33295 | 10214 ft | 256 kts | 317° |
| 2026-05-07 13:40 | 53.10679 | -6.35134 | 9849 ft | 255 kts | 318° |
| 2026-05-07 13:40 | 53.12064 | -6.36965 | 9426 ft | 253 kts | 317° |
| 2026-05-07 13:41 | 53.13438 | -6.38781 | 9060 ft | 251 kts | 317° |
| 2026-05-07 13:41 | 53.14802 | -6.40586 | 8753 ft | 251 kts | 317° |
| 2026-05-07 13:41 | 53.16176 | -6.42407 | 8436 ft | 254 kts | 318° |
| 2026-05-07 13:41 | 53.17555 | -6.44234 | 8129 ft | 255 kts | 317° |
| 2026-05-07 13:42 | 53.18929 | -6.46058 | 7835 ft | 256 kts | 318° |
| 2026-05-07 13:42 | 53.20330 | -6.47918 | 7529 ft | 257 kts | 318° |
| 2026-05-07 13:42 | 53.21730 | -6.49777 | 7226 ft | 258 kts | 318° |
| 2026-05-07 13:42 | 53.23125 | -6.51632 | 6930 ft | 259 kts | 318° |
| 2026-05-07 13:43 | 53.24532 | -6.53505 | 6629 ft | 260 kts | 318° |
| 2026-05-07 13:43 | 53.25956 | -6.55403 | 6333 ft | 261 kts | 318° |
| 2026-05-07 13:43 | 53.27376 | -6.57297 | 6027 ft | 262 kts | 318° |
| 2026-05-07 13:43 | 53.28783 | -6.59172 | 5713 ft | 263 kts | 318° |
| 2026-05-07 13:44 | 53.30205 | -6.61072 | 5408 ft | 263 kts | 318° |
| 2026-05-07 13:44 | 53.31643 | -6.62992 | 5110 ft | 264 kts | 318° |
| 2026-05-07 13:44 | 53.33077 | -6.64913 | 4796 ft | 263 kts | 318° |
| 2026-05-07 13:44 | 53.34482 | -6.66792 | 4475 ft | 257 kts | 318° |
| 2026-05-07 13:45 | 53.35910 | -6.68566 | 4133 ft | 254 kts | 331° |
| 2026-05-07 13:45 | 53.37626 | -6.69040 | 3808 ft | 252 kts | 8° |
| 2026-05-07 13:45 | 53.39222 | -6.67987 | 3513 ft | 246 kts | 36° |
| 2026-05-07 13:45 | 53.40422 | -6.66017 | 3210 ft | 239 kts | 58° |
| 2026-05-07 13:46 | 53.41234 | -6.63683 | 3030 ft | 229 kts | 65° |
| 2026-05-07 13:46 | 53.41946 | -6.61403 | 3005 ft | 211 kts | 65° |
| 2026-05-07 13:46 | 53.42603 | -6.59306 | 2983 ft | 198 kts | 65° |
| 2026-05-07 13:46 | 53.43235 | -6.57308 | 3002 ft | 189 kts | 64° |
| 2026-05-07 13:47 | 53.43840 | -6.55415 | 3000 ft | 181 kts | 65° |
| 2026-05-07 13:47 | 53.44418 | -6.53611 | 3003 ft | 168 kts | 65° |
| 2026-05-07 13:47 | 53.44776 | -6.51805 | 2972 ft | 161 kts | 95° |
| 2026-05-07 13:47 | 53.44748 | -6.49933 | 2788 ft | 162 kts | 94° |
| 2026-05-07 13:48 | 53.44777 | -6.48083 | 2587 ft | 157 kts | 95° |
| 2026-05-07 13:48 | 53.44733 | -6.46281 | 2409 ft | 155 kts | 100° |
| 2026-05-07 13:48 | 53.44646 | -6.44503 | 2203 ft | 152 kts | 101° |
| 2026-05-07 13:48 | 53.44548 | -6.42779 | 2018 ft | 143 kts | 101° |
| 2026-05-07 13:49 | 53.44451 | -6.41088 | 1791 ft | 146 kts | 101° |
| 2026-05-07 13:49 | 53.44355 | -6.39387 | 1581 ft | 148 kts | 101° |
| 2026-05-07 13:49 | 53.44258 | -6.37651 | 1359 ft | 150 kts | 102° |
| 2026-05-07 13:49 | 53.44146 | -6.35935 | 1181 ft | 147 kts | 101° |
| 2026-05-07 13:50 | 53.44085 | -6.34266 | 971 ft | 140 kts | 97° |
| 2026-05-07 13:50 | 53.44031 | -6.32682 | 783 ft | 133 kts | 97° |
| 2026-05-07 13:50 | 53.43907 | -6.31173 | 563 ft | 125 kts | 99° |
| 2026-05-07 13:50 | 53.43817 | -6.29801 | 415 ft | 116 kts | 96° |
| 2026-05-07 13:51 | 53.43740 | -6.28482 | 262 ft | 113 kts | 95° |
| 2026-05-07 13:51 | 53.43670 | -6.27206 | 216 ft | 106 kts | 95° |
| 2026-05-07 13:51 | 53.43611 | -6.26162 | 210 ft | 73 kts | 96° |
| 2026-05-07 13:51 | 53.43576 | -6.25532 | 216 ft | 28 kts | 95° |
| 2026-05-07 13:52 | 53.43527 | -6.25233 | 215 ft | 26 kts | 116° |
| 2026-05-07 13:52 | 53.43442 | -6.24984 | 218 ft | 24 kts | 120° |
| 2026-05-07 13:52 | 53.43379 | -6.24789 | 214 ft | 7 kts | 109° |
| 2026-05-07 13:52 | 53.43366 | -6.24713 | 213 ft | 7 kts | 101° |
| 2026-05-07 13:53 | 53.43360 | -6.24634 | 213 ft | 7 kts | 104° |
| 2026-05-07 13:53 | 53.43350 | -6.24555 | 210 ft | 7 kts | 96° |
| 2026-05-07 13:53 | 53.43347 | -6.24474 | 210 ft | 7 kts | 99° |
| 2026-05-07 13:53 | 53.43318 | -6.24413 | 212 ft | 7 kts | 149° |
| 2026-05-07 13:54 | 53.43270 | -6.24405 | 215 ft | 7 kts | 183° |
| 2026-05-07 13:54 | 53.43239 | -6.24412 | 210 ft | 0 kts | 184° |
| 2026-05-07 13:54 | 53.43226 | -6.24416 | 210 ft | 5 kts | 192° |
| 2026-05-07 13:55 | 53.43191 | -6.24472 | 210 ft | 9 kts | 250° |
| 2026-05-07 13:55 | 53.43193 | -6.24575 | 210 ft | 9 kts | 277° |
| 2026-05-07 13:55 | 53.43196 | -6.24626 | 210 ft | 2 kts | 274° |
| 2026-05-07 13:55 | 53.43196 | -6.24644 | 210 ft | 1 kts | 270° |
| 2026-05-07 13:56 | 53.43193 | -6.24660 | 210 ft | 2 kts | 248° |
| 2026-05-07 13:56 | 53.43177 | -6.24678 | 219 ft | 3 kts | 206° |
| 2026-05-07 13:56 | 53.43155 | -6.24688 | 213 ft | 3 kts | 189° |
| 2026-05-07 13:56 | 53.43133 | -6.24693 | 213 ft | 3 kts | 186° |
| 2026-05-07 13:57 | 53.43111 | -6.24697 | 210 ft | 3 kts | 185° |
| 2026-05-07 13:57 | 53.43094 | -6.24699 | 210 ft | 0 kts | 184° |